createdAt,value
2022-10-13T00:01:12.946Z,23.92
2022-10-13T00:03:41.922Z,23.95
2022-10-13T00:06:11.450Z,18.20
2022-10-13T00:08:39.989Z,26.90
2022-10-13T00:11:16.860Z,25.10
2022-10-13T00:13:45.514Z,34.22
2022-10-13T00:16:14.829Z,27.40
2022-10-13T00:18:42.698Z,23.40
2022-10-13T00:21:12.649Z,22.45
2022-10-13T00:23:40.318Z,23.10
2022-10-13T00:26:10.805Z,27.30
2022-10-13T00:28:39.077Z,22.65
2022-10-13T00:31:19.687Z,20.55
2022-10-13T00:33:47.430Z,26.60
2022-10-13T00:36:15.259Z,22.83
2022-10-13T00:38:42.843Z,26.17
2022-10-13T00:41:10.476Z,21.48
2022-10-13T00:44:04.061Z,23.40
2022-10-13T00:46:37.106Z,19.95
2022-10-13T00:49:09.749Z,23.15
2022-10-13T00:51:45.025Z,22.27
2022-10-13T00:54:18.001Z,23.27
2022-10-13T00:56:46.744Z,22.42
2022-10-13T00:59:22.885Z,21.08
2022-10-13T01:01:52.874Z,28.40
2022-10-13T01:04:23.505Z,25.35
2022-10-13T01:06:52.310Z,22.00
2022-10-13T01:09:19.818Z,19.42
2022-10-13T01:12:06.007Z,22.30
2022-10-13T01:15:11.977Z,24.95
2022-10-13T01:18:16.566Z,24.45
2022-10-13T01:21:09.099Z,22.77
2022-10-13T01:23:54.949Z,25.80
2022-10-13T01:26:27.966Z,27.77
2022-10-13T01:28:58.082Z,25.58
2022-10-13T01:31:34.232Z,19.63
2022-10-13T01:34:42.656Z,19.35
2022-10-13T01:37:12.744Z,25.00
2022-10-13T01:39:55.258Z,23.63
2022-10-13T01:42:44.753Z,20.95
2022-10-13T01:45:19.386Z,20.83
2022-10-13T01:47:48.211Z,21.65
2022-10-13T01:50:18.321Z,23.52
2022-10-13T01:52:46.967Z,22.23
2022-10-13T01:55:14.594Z,23.52
2022-10-13T01:57:44.747Z,18.27
2022-10-13T02:00:17.785Z,21.85
2022-10-13T02:03:03.104Z,21.92
2022-10-13T02:06:06.018Z,21.83
2022-10-13T02:08:54.642Z,24.73
2022-10-13T02:11:23.790Z,21.10
2022-10-13T02:14:16.132Z,21.92
2022-10-13T02:16:45.826Z,21.63
2022-10-13T02:19:15.913Z,24.00
2022-10-13T02:21:44.497Z,28.58
2022-10-13T02:24:13.644Z,19.20
2022-10-13T02:26:41.797Z,20.90
2022-10-13T02:29:14.630Z,16.40
2022-10-13T02:31:43.043Z,24.45
2022-10-13T02:34:10.735Z,16.55
2022-10-13T02:36:39.081Z,20.73
2022-10-13T02:39:10.892Z,23.25
2022-10-13T02:44:06.677Z,19.75
2022-10-13T02:46:35.230Z,23.42
2022-10-13T02:49:02.525Z,19.95
2022-10-13T02:51:30.966Z,23.55
2022-10-13T02:53:58.697Z,21.88
2022-10-13T02:56:26.041Z,19.63
2022-10-13T02:58:53.680Z,19.52
2022-10-13T03:01:20.974Z,23.50
2022-10-13T03:03:48.263Z,21.02
2022-10-13T03:06:15.628Z,17.88
2022-10-13T03:08:43.102Z,20.95
2022-10-13T03:11:10.507Z,18.63
2022-10-13T03:13:38.289Z,21.63
2022-10-13T03:16:07.537Z,21.60
2022-10-13T03:18:35.109Z,20.33
2022-10-13T03:21:05.637Z,13.35
2022-10-13T03:23:34.057Z,19.10
2022-10-13T03:26:01.439Z,19.42
2022-10-13T03:28:29.008Z,20.25
2022-10-13T03:31:03.730Z,21.73
2022-10-13T03:33:31.017Z,22.33
2022-10-13T03:36:03.157Z,21.88
2022-10-13T03:38:32.424Z,23.73
2022-10-13T03:41:06.066Z,23.30
2022-10-13T03:43:33.600Z,24.27
2022-10-13T03:46:02.726Z,28.23
2022-10-13T03:48:30.781Z,20.20
2022-10-13T03:50:58.280Z,25.00
2022-10-13T03:53:26.145Z,18.70
2022-10-13T03:55:55.430Z,19.60
2022-10-13T03:58:24.628Z,25.63
2022-10-13T04:00:53.882Z,23.97
2022-10-13T04:03:21.343Z,29.25
2022-10-13T04:05:48.771Z,22.48
2022-10-13T04:08:18.419Z,24.52
2022-10-13T04:10:45.829Z,25.95
2022-10-13T04:13:13.168Z,25.73
2022-10-13T04:15:41.788Z,19.00
2022-10-13T04:18:11.118Z,24.42
2022-10-13T04:20:39.839Z,25.55
2022-10-13T04:23:07.743Z,21.58
2022-10-13T04:25:38.842Z,18.27
2022-10-13T04:28:07.010Z,18.00
2022-10-13T04:30:37.013Z,21.52
2022-10-13T04:33:04.605Z,20.73
2022-10-13T04:35:32.172Z,17.20
2022-10-13T04:37:59.806Z,22.77
2022-10-13T04:40:27.551Z,24.00
2022-10-13T04:42:54.930Z,20.17
2022-10-13T04:45:22.427Z,24.45
2022-10-13T04:47:50.620Z,21.77
2022-10-13T04:50:22.406Z,24.20
2022-10-13T04:52:59.870Z,26.45
2022-10-13T04:55:27.217Z,18.05
2022-10-13T04:57:54.617Z,22.98
2022-10-13T05:00:21.991Z,23.00
2022-10-13T05:02:49.977Z,22.67
2022-10-13T05:05:17.508Z,25.00
2022-10-13T05:07:44.894Z,18.73
2022-10-13T05:10:12.256Z,28.35
2022-10-13T05:12:39.531Z,25.65
2022-10-13T05:15:07.445Z,24.80
2022-10-13T05:17:35.739Z,21.67
2022-10-13T05:20:09.267Z,21.58
2022-10-13T05:22:36.597Z,22.02
2022-10-13T05:25:04.381Z,22.42
2022-10-13T05:27:31.720Z,21.13
2022-10-13T05:30:01.814Z,21.65
2022-10-13T05:32:29.109Z,21.00
2022-10-13T05:34:56.437Z,22.85
2022-10-13T05:37:23.857Z,23.40
2022-10-13T05:39:51.247Z,22.55
2022-10-13T05:42:19.055Z,19.42
2022-10-13T05:44:46.876Z,20.92
2022-10-13T05:47:14.226Z,21.20
2022-10-13T05:49:41.692Z,21.65
2022-10-13T05:52:11.830Z,18.67
2022-10-13T05:54:47.095Z,17.17
2022-10-13T05:57:25.246Z,21.48
2022-10-13T06:00:02.557Z,18.55
2022-10-13T06:03:08.901Z,22.55
2022-10-13T06:05:36.733Z,21.70
2022-10-13T06:08:04.395Z,21.75
2022-10-13T06:10:32.018Z,21.00
2022-10-13T06:12:59.347Z,18.52
2022-10-13T06:15:28.348Z,22.45
2022-10-13T06:17:56.846Z,26.20
2022-10-13T06:20:24.505Z,29.70
2022-10-13T06:22:51.956Z,30.23
2022-10-13T06:25:19.259Z,27.27
2022-10-13T06:27:46.550Z,24.17
2022-10-13T06:30:13.931Z,28.58
2022-10-13T06:32:41.282Z,30.77
2022-10-13T06:35:09.071Z,24.70
2022-10-13T06:37:36.725Z,23.05
2022-10-13T06:40:05.592Z,21.08
2022-10-13T06:42:34.818Z,20.48
2022-10-13T06:45:09.886Z,26.02
2022-10-13T06:47:40.898Z,22.95
2022-10-13T06:50:08.635Z,19.90
2022-10-13T06:52:35.920Z,18.45
2022-10-13T06:55:03.636Z,19.20
2022-10-13T06:57:33.235Z,21.50
2022-10-13T07:00:02.462Z,32.58
2022-10-13T07:02:29.825Z,28.95
2022-10-13T07:04:57.175Z,27.85
2022-10-13T07:07:24.526Z,33.47
2022-10-13T07:09:54.878Z,27.38
2022-10-13T07:12:22.667Z,27.02
2022-10-13T07:14:50.388Z,25.17
2022-10-13T07:17:17.977Z,21.85
2022-10-13T07:19:48.369Z,20.17
2022-10-13T07:22:16.207Z,29.92
2022-10-13T07:24:43.925Z,25.48
2022-10-13T07:27:11.245Z,27.90
2022-10-13T07:29:38.583Z,29.27
2022-10-13T07:32:06.612Z,31.23
2022-10-13T07:34:33.989Z,28.83
2022-10-13T07:37:01.381Z,29.52
2022-10-13T07:39:29.878Z,29.65
2022-10-13T07:41:57.242Z,22.90
2022-10-13T07:44:24.644Z,22.77
2022-10-13T07:46:52.025Z,29.98
2022-10-13T07:49:19.419Z,25.85
2022-10-13T07:51:46.691Z,27.08
2022-10-13T07:54:15.477Z,31.10
2022-10-13T07:56:42.873Z,24.48
2022-10-13T07:59:10.517Z,28.17
2022-10-13T08:01:37.966Z,24.30
2022-10-13T08:04:05.463Z,23.73
2022-10-13T08:06:32.742Z,31.00
2022-10-13T08:09:04.569Z,25.83
2022-10-13T08:11:32.035Z,29.27
2022-10-13T08:14:02.324Z,27.83
2022-10-13T08:16:31.538Z,27.20
2022-10-13T08:18:59.882Z,34.30
2022-10-13T08:24:17.834Z,28.52
2022-10-13T08:26:46.517Z,30.80
2022-10-13T08:29:22.004Z,23.95
2022-10-13T08:31:52.747Z,25.77
2022-10-13T08:34:21.331Z,25.05
2022-10-13T08:36:52.697Z,22.27
2022-10-13T08:39:21.773Z,28.35
2022-10-13T08:41:50.162Z,28.30
2022-10-13T08:47:38.666Z,29.80
2022-10-13T08:50:14.438Z,27.58
2022-10-13T08:52:45.344Z,41.20
2022-10-13T08:56:03.987Z,36.50
2022-10-13T08:58:35.837Z,29.05
2022-10-13T09:01:08.919Z,27.80
2022-10-13T09:04:15.475Z,29.70
2022-10-13T09:06:58.812Z,25.92
2022-10-13T09:09:26.217Z,28.35
2022-10-13T09:11:53.711Z,27.80
2022-10-13T09:14:27.887Z,25.10
2022-10-13T09:17:12.088Z,28.63
2022-10-13T09:19:40.945Z,24.45
2022-10-13T09:22:27.811Z,24.52
2022-10-13T09:25:07.487Z,21.80
2022-10-13T09:27:51.937Z,21.85
2022-10-13T09:30:39.122Z,27.58
2022-10-13T09:33:09.440Z,32.92
2022-10-13T09:35:38.635Z,27.30
2022-10-13T09:38:16.082Z,26.50
2022-10-13T09:41:00.235Z,35.03
2022-10-13T09:43:34.330Z,31.83
2022-10-13T09:46:04.143Z,26.42
2022-10-13T09:48:35.691Z,37.15
2022-10-13T09:51:03.415Z,28.77
2022-10-13T09:53:35.434Z,29.08
2022-10-13T09:56:27.926Z,22.05
2022-10-13T09:59:07.443Z,24.60
2022-10-13T10:01:40.397Z,22.27
2022-10-13T10:04:14.251Z,26.52
2022-10-13T10:06:42.973Z,24.00
2022-10-13T10:09:33.336Z,22.17
2022-10-13T10:12:02.983Z,32.17
2022-10-13T10:14:36.333Z,26.48
2022-10-13T10:17:09.681Z,29.73
2022-10-13T10:19:42.865Z,25.33
2022-10-13T10:22:10.209Z,26.75
2022-10-13T10:24:48.213Z,29.30
2022-10-13T10:27:26.128Z,33.03
2022-10-13T10:30:01.861Z,32.47
2022-10-13T10:32:59.150Z,35.97
2022-10-13T10:35:52.025Z,30.30
2022-10-13T10:38:31.688Z,31.15
2022-10-13T10:41:24.963Z,30.65
2022-10-13T10:44:15.922Z,28.08
2022-10-13T10:46:47.931Z,33.95
2022-10-13T10:49:30.499Z,33.53
2022-10-13T10:52:05.948Z,28.52
2022-10-13T10:54:49.665Z,27.45
2022-10-13T10:57:29.278Z,23.75
2022-10-13T11:00:19.541Z,29.77
2022-10-13T11:03:07.075Z,27.15
2022-10-13T11:06:00.263Z,30.10
2022-10-13T11:08:47.180Z,31.30
2022-10-13T11:11:24.803Z,36.05
2022-10-13T11:14:16.540Z,33.10
2022-10-13T11:17:02.574Z,30.58
2022-10-13T11:19:40.379Z,34.75
2022-10-13T11:22:07.686Z,34.80
2022-10-13T11:24:46.478Z,27.75
2022-10-13T11:27:16.933Z,21.08
2022-10-13T11:29:44.318Z,32.83
2022-10-13T11:32:27.072Z,22.80
2022-10-13T11:35:20.050Z,30.65
2022-10-13T11:38:08.303Z,26.42
2022-10-13T11:40:58.254Z,24.40
2022-10-13T11:44:16.890Z,30.95
2022-10-13T11:47:16.007Z,25.20
2022-10-13T11:50:01.883Z,24.45
2022-10-13T11:52:58.008Z,23.95
2022-10-13T11:55:37.277Z,22.92
2022-10-13T11:58:23.931Z,28.98
2022-10-13T12:00:55.448Z,21.85
2022-10-13T12:03:32.797Z,22.25
2022-10-13T12:06:05.547Z,24.30
2022-10-13T12:08:37.953Z,26.15
2022-10-13T12:11:07.496Z,25.73
2022-10-13T12:13:37.273Z,23.00
2022-10-13T12:16:06.839Z,21.60
2022-10-13T12:18:39.930Z,27.05
2022-10-13T12:21:13.668Z,29.08
2022-10-13T12:23:41.439Z,24.30
2022-10-13T12:26:21.692Z,26.50
2022-10-13T12:29:01.843Z,22.20
2022-10-13T12:31:40.677Z,22.75
2022-10-13T12:34:34.342Z,24.45
2022-10-13T12:37:33.521Z,20.77
2022-10-13T12:40:04.469Z,22.52
2022-10-13T12:42:34.887Z,20.90
2022-10-13T12:45:03.238Z,17.75
2022-10-13T12:47:47.525Z,24.63
2022-10-13T12:50:29.942Z,23.15
2022-10-13T12:53:09.765Z,18.83
2022-10-13T12:55:50.201Z,28.02
2022-10-13T12:58:22.685Z,30.00
2022-10-13T13:01:18.471Z,22.83
2022-10-13T13:03:45.948Z,28.65
2022-10-13T13:06:16.463Z,24.92
2022-10-13T13:08:43.925Z,21.55
2022-10-13T13:11:33.445Z,22.88
2022-10-13T13:14:25.518Z,30.63
2022-10-13T13:17:11.217Z,25.88
2022-10-13T13:19:39.367Z,23.85
2022-10-13T13:22:09.452Z,31.50
2022-10-13T13:24:40.294Z,20.00
2022-10-13T13:27:48.697Z,25.80
2022-10-13T13:30:20.471Z,26.20
2022-10-13T13:32:49.675Z,24.92
2022-10-13T13:35:17.698Z,17.88
2022-10-13T13:37:49.729Z,23.75
2022-10-13T13:40:26.902Z,23.35
2022-10-13T13:42:54.955Z,22.45
2022-10-13T13:45:25.423Z,21.17
2022-10-13T13:47:59.569Z,20.35
2022-10-13T13:50:33.861Z,26.05
2022-10-13T13:53:02.057Z,25.55
2022-10-13T13:55:30.139Z,34.05
2022-10-13T13:57:58.312Z,29.67
2022-10-13T14:00:26.694Z,22.40
2022-10-13T14:02:58.847Z,26.67
2022-10-13T14:05:26.628Z,29.67
2022-10-13T14:07:56.737Z,21.65
2022-10-13T14:10:25.382Z,26.10
2022-10-13T14:12:52.945Z,29.35
2022-10-13T14:15:21.042Z,25.92
2022-10-13T14:17:51.408Z,35.97
2022-10-13T14:20:18.808Z,29.27
2022-10-13T14:22:46.186Z,31.85
2022-10-13T14:25:14.533Z,25.85
2022-10-13T14:27:41.970Z,33.92
2022-10-13T14:30:10.062Z,27.65
2022-10-13T14:32:37.818Z,26.30
2022-10-13T14:35:05.945Z,24.13
2022-10-13T14:37:34.273Z,33.53
2022-10-13T14:40:02.003Z,29.27
2022-10-13T14:42:29.286Z,35.67
2022-10-13T14:44:56.627Z,34.70
2022-10-13T14:47:24.148Z,30.98
2022-10-13T14:49:51.511Z,40.97
2022-10-13T14:52:18.832Z,34.25
2022-10-13T14:54:46.120Z,40.70
2022-10-13T14:57:16.065Z,36.05
2022-10-13T14:59:43.741Z,42.13
2022-10-13T15:02:11.882Z,33.22
2022-10-13T15:04:42.124Z,36.58
2022-10-13T15:07:09.477Z,38.63
2022-10-13T15:09:53.271Z,43.42
2022-10-13T15:12:24.299Z,37.85
2022-10-13T15:14:51.662Z,37.70
2022-10-13T15:17:18.986Z,42.33
2022-10-13T15:19:46.426Z,42.28
2022-10-13T15:22:13.946Z,39.35
2022-10-13T15:24:41.298Z,40.50
2022-10-13T15:27:08.678Z,40.63
2022-10-13T15:29:35.966Z,41.88
2022-10-13T15:32:11.752Z,39.60
2022-10-13T15:34:42.165Z,46.00
2022-10-13T15:37:09.519Z,40.50
2022-10-13T15:39:37.397Z,39.22
2022-10-13T15:42:05.650Z,45.53
2022-10-13T15:44:51.055Z,44.67
2022-10-13T15:47:20.201Z,42.25
2022-10-13T15:49:47.525Z,38.03
2022-10-13T15:52:14.952Z,41.08
2022-10-13T15:54:42.407Z,45.58
2022-10-13T15:57:09.669Z,45.75
2022-10-13T15:59:37.028Z,46.80
2022-10-13T16:02:04.418Z,44.75
2022-10-13T16:04:37.109Z,43.97
2022-10-13T16:07:04.758Z,41.97
2022-10-13T16:09:32.106Z,46.92
2022-10-13T16:11:59.423Z,39.88
2022-10-13T16:14:26.718Z,48.33
2022-10-13T16:16:54.049Z,40.72
2022-10-13T16:19:21.492Z,43.60
2022-10-13T16:21:49.443Z,47.17
2022-10-13T16:24:16.800Z,46.15
2022-10-13T16:26:44.135Z,44.90
2022-10-13T16:29:11.521Z,40.72
2022-10-13T16:31:38.832Z,42.15
2022-10-13T16:34:06.371Z,40.22
2022-10-13T16:36:34.000Z,47.58
2022-10-13T16:39:01.498Z,52.00
2022-10-13T16:41:28.858Z,41.03
2022-10-13T16:43:56.229Z,44.17
2022-10-13T16:46:23.701Z,46.55
2022-10-13T16:48:51.121Z,46.83
2022-10-13T16:51:21.804Z,42.13
2022-10-13T16:53:51.040Z,43.75
2022-10-13T16:56:22.195Z,37.53
2022-10-13T16:58:54.902Z,39.60
2022-10-13T17:01:23.144Z,39.92
2022-10-13T17:03:51.404Z,44.92
2022-10-13T17:06:20.718Z,41.25
2022-10-13T17:08:56.612Z,42.40
2022-10-13T17:11:26.796Z,51.65
2022-10-13T17:13:57.014Z,45.92
2022-10-13T17:16:25.019Z,42.60
2022-10-13T17:18:52.543Z,43.42
2022-10-13T17:21:21.974Z,39.13
2022-10-13T17:23:49.675Z,52.25
2022-10-13T17:26:19.029Z,49.97
2022-10-13T17:28:46.482Z,41.83
2022-10-13T17:31:22.183Z,51.15
2022-10-13T17:33:50.739Z,50.88
2022-10-13T17:36:21.155Z,46.13
2022-10-13T17:38:50.091Z,45.85
2022-10-13T17:41:18.091Z,46.08
2022-10-13T17:43:51.187Z,43.47
2022-10-13T17:46:38.728Z,52.75
2022-10-13T17:49:09.684Z,48.53
2022-10-13T17:51:37.280Z,44.47
2022-10-13T17:54:05.189Z,55.00
2022-10-13T17:56:32.535Z,45.58
2022-10-13T17:59:00.762Z,52.40
2022-10-13T18:01:31.622Z,44.20
2022-10-13T18:04:20.477Z,44.03
2022-10-13T18:06:47.953Z,42.65
2022-10-13T18:09:20.869Z,44.13
2022-10-13T18:11:51.216Z,40.50
2022-10-13T18:14:21.203Z,41.63
2022-10-13T18:16:50.235Z,52.40
2022-10-13T18:19:17.873Z,57.58
2022-10-13T18:21:45.341Z,57.45
2022-10-13T18:24:12.832Z,46.00
2022-10-13T18:26:40.596Z,54.70
2022-10-13T18:29:10.271Z,47.05
2022-10-13T18:31:39.685Z,43.88
2022-10-13T18:34:10.742Z,53.60
2022-10-13T18:36:40.936Z,47.87
2022-10-13T18:39:30.095Z,54.50
2022-10-13T18:41:57.841Z,48.13
2022-10-13T18:44:34.413Z,57.80
2022-10-13T18:47:02.154Z,53.53
2022-10-13T18:49:33.140Z,55.95
2022-10-13T18:52:01.785Z,50.53
2022-10-13T18:54:30.181Z,50.30
2022-10-13T18:56:57.905Z,51.55
2022-10-13T18:59:25.422Z,58.03
2022-10-13T19:01:52.863Z,53.88
2022-10-13T19:04:22.375Z,58.67
2022-10-13T19:06:51.056Z,46.40
2022-10-13T19:09:18.474Z,49.65
2022-10-13T19:11:45.909Z,50.00
2022-10-13T19:14:16.649Z,52.67
2022-10-13T19:16:44.380Z,47.30
2022-10-13T19:19:12.621Z,58.80
2022-10-13T19:21:40.575Z,54.53
2022-10-13T19:24:10.052Z,54.33
2022-10-13T19:26:37.864Z,43.08
2022-10-13T19:29:11.131Z,45.00
2022-10-13T19:31:40.404Z,47.38
2022-10-13T19:34:08.787Z,45.53
2022-10-13T19:36:39.878Z,42.35
2022-10-13T19:39:20.862Z,46.25
2022-10-13T19:41:49.905Z,54.33
2022-10-13T19:44:18.672Z,47.75
2022-10-13T19:46:47.579Z,52.53
2022-10-13T19:49:17.515Z,43.65
2022-10-13T19:51:45.735Z,46.65
2022-10-13T19:54:13.595Z,52.97
2022-10-13T19:56:47.483Z,52.13
2022-10-13T19:59:15.744Z,44.75
2022-10-13T20:01:43.361Z,47.33
2022-10-13T20:04:15.907Z,58.90
2022-10-13T20:06:46.692Z,43.22
2022-10-13T20:09:14.969Z,51.55
2022-10-13T20:11:46.303Z,45.30
2022-10-13T20:14:14.721Z,47.35
2022-10-13T20:16:42.440Z,59.72
2022-10-13T20:19:11.752Z,48.30
2022-10-13T20:21:39.899Z,48.63
2022-10-13T20:24:12.274Z,49.92
2022-10-13T20:26:41.035Z,45.70
2022-10-13T20:29:09.057Z,57.50
2022-10-13T20:31:36.619Z,51.50
2022-10-13T20:34:04.152Z,47.83
2022-10-13T20:36:36.002Z,51.85
2022-10-13T20:39:06.469Z,49.08
2022-10-13T20:41:34.848Z,42.38
2022-10-13T20:44:02.744Z,53.33
2022-10-13T20:46:33.086Z,43.42
2022-10-13T20:49:15.820Z,48.90
2022-10-13T20:51:43.784Z,47.03
2022-10-13T20:54:12.912Z,51.03
2022-10-13T20:56:41.001Z,53.67
2022-10-13T20:59:11.731Z,58.28
2022-10-13T21:01:39.280Z,46.85
2022-10-13T21:04:06.788Z,50.05
2022-10-13T21:06:34.383Z,49.42
2022-10-13T21:09:02.767Z,42.47
2022-10-13T21:11:30.090Z,54.03
2022-10-13T21:13:57.637Z,55.90
2022-10-13T21:16:27.473Z,51.55
2022-10-13T21:18:56.600Z,48.25
2022-10-13T21:21:29.375Z,47.25
2022-10-13T21:24:02.050Z,50.47
2022-10-13T21:26:30.913Z,53.72
2022-10-13T21:28:58.839Z,55.33
2022-10-13T21:31:27.524Z,46.58
2022-10-13T21:33:55.268Z,54.95
2022-10-13T21:36:31.388Z,44.53
2022-10-13T21:39:02.158Z,44.15
2022-10-13T21:41:30.200Z,48.30
2022-10-13T21:43:57.588Z,47.30
2022-10-13T21:46:30.412Z,56.15
2022-10-13T21:48:59.910Z,50.13
2022-10-13T21:51:38.788Z,49.58
2022-10-13T21:54:10.216Z,49.45
2022-10-13T21:56:38.784Z,52.60
2022-10-13T21:59:07.399Z,48.20
2022-10-13T22:01:34.857Z,49.65
2022-10-13T22:04:12.008Z,52.97
2022-10-13T22:06:39.594Z,53.40
2022-10-13T22:09:07.477Z,49.38
2022-10-13T22:11:36.678Z,49.88
2022-10-13T22:14:11.344Z,46.08
2022-10-13T22:16:41.372Z,48.67
2022-10-13T22:19:08.969Z,55.10
2022-10-13T22:21:40.924Z,52.95
2022-10-13T22:24:11.552Z,46.47
2022-10-13T22:26:41.424Z,43.38
2022-10-13T22:29:10.676Z,51.25
2022-10-13T22:31:39.035Z,55.30
2022-10-13T22:34:10.761Z,47.50
2022-10-13T22:36:43.658Z,50.50
2022-10-13T22:39:12.645Z,50.47
2022-10-13T22:41:40.218Z,50.15
2022-10-13T22:44:07.646Z,52.08
2022-10-13T22:46:36.751Z,52.35
2022-10-13T22:49:05.894Z,49.78
2022-10-13T22:51:34.877Z,50.60
2022-10-13T22:54:02.941Z,42.67
2022-10-13T22:56:32.967Z,48.78
2022-10-13T22:59:04.074Z,49.35
2022-10-13T23:01:31.667Z,50.23
2022-10-13T23:03:59.501Z,47.35
2022-10-13T23:06:29.542Z,46.10
2022-10-13T23:09:00.882Z,50.33
2022-10-13T23:11:28.334Z,43.90
2022-10-13T23:13:56.114Z,50.58
2022-10-13T23:16:25.431Z,50.75
2022-10-13T23:18:53.322Z,45.83
2022-10-13T23:21:26.210Z,48.85
2022-10-13T23:23:59.398Z,52.45
2022-10-13T23:26:27.878Z,51.33
2022-10-13T23:28:56.746Z,47.20
2022-10-13T23:31:25.172Z,56.55
2022-10-13T23:33:52.941Z,55.50
2022-10-13T23:36:22.404Z,49.30
2022-10-13T23:38:55.465Z,56.00
2022-10-13T23:41:22.964Z,54.97
2022-10-13T23:43:50.615Z,55.72
2022-10-13T23:46:18.048Z,43.70
2022-10-13T23:48:45.671Z,56.92
2022-10-13T23:51:19.264Z,51.13
2022-10-13T23:53:47.234Z,49.00
2022-10-13T23:56:15.881Z,52.30
2022-10-13T23:58:44.544Z,49.67
